TSV weather

Townsville Airport
Townsville, Queensland, Australia

Public forecast

Using degrees Celsius for public forecast. Weather courtesy of forecast.io.

Current aviation weather report (METAR) for Townsville Airport

Retrieved 2020/02/19 21:30 UTC (23 minutes ago):

YBTL 192130Z 24005KT 9999 SCT022 BKN350 30/26 Q1007 NOSIG

Aviation forecast (TAF) for Townsville Airport

Retrieved 2020/02/19 18:00 UTC (4 hours ago):

TAF YBTL 191703Z 1918/2018 VRB05KT 9999 -SHRA SCT017 SCT030 FM200000 06014KT 9999 SCT030 FM200900 08008KT 9999 SCT022